Lake Charles, LA (70605)

2:54 AM CST on December 10, 2016 (GMT -0600)
Lake Charles | | Change Station
Active Advisory: Freeze Warning

Elev 10 ft 30.19 °N, 93.23 °W | Updated 6 seconds ago

Clear
Clear
34.9 °F
Feels Like 35 °F
N
0.0
Wind Variable Wind from ENE
Gusts 1.0 mph

Today
High -- | Low -- °F
--% Chance of Precip.
Yesterday
High -- | Low -- °F
Precip. -- in
Pressure 30.56 in
Visibility 10.0 miles
Clouds Clear
Windchill 35 °F
Dew Point 29 °F
Humidity 80%
Rainfall 0.00 in
Snow Depth Not available.
6:58 AM 5:13 PM
Waxing Gibbous, 82% visible
METAR KLCH 100753Z AUTO 05005KT 10SM CLR 01/M02 A3053 RMK AO2 SLP347 T00111017
Pressure 30.56 in
Visibility 10.0 miles
Clouds Clear
Windchill 35 °F
Dew Point 29 °F
Humidity 80%
Rainfall 0.00 in
Snow Depth Not available.
6:58 AM 5:13 PM
Waxing Gibbous, 82% visible
METAR KLCH 100753Z AUTO 05005KT 10SM CLR 01/M02 A3053 RMK AO2 SLP347 T00111017

10-Day Weather Forecast

Almanac

Astronomy

Dec. 10, 2016 Rise Set
Actual Time
Civil Twilight
Nautical Twilight
Astronomical Twilight
Moon
Length of Visible Light
Length of Day
Tomorrow will be .
, % of the Moon is Illuminated

Today's Extremes

State Highs State Lows

Community

WunderPhotos

Upload Photos

1,956,538 photos uploaded!

WunderBlog® & News

Nearby

Air Quality

  Air Quality AQ Index Pollutant
Not available.

Snow Depth

Station Depth Elevation

Earthquake Activity

City Distance Mag. Time & Date
Minimum magnitude displayed is 2.5.

Coastal Water Temperatures

Place Temperature

Stations

Nearby Weather Stations

Station Location Temp. Windchill Dew Point Humidity Wind Precip. Elev Updated Type
                   

Watches & Warnings

Freeze Warning
Issued: 8:55 PM CST Dec. 9, 2016 – National Weather Service

... Freeze warning remains in effect until 9 am CST Saturday...

* temperature... prolonged period of 25 to 30 degrees across
interior East Texas and central Louisiana generally along and
north of the Highway 190 corridor. Shorter duration 30 to 32
along the I-10 corridor.

* Impacts... freezing temperatures will kill crops and sensitive
vegetation left outdoors. Pets should be brought inside or
provided a climate controlled shelter.

Precautionary/preparedness actions...

A freeze warning means sub-freezing temperatures are imminent or
highly likely. These conditions will kill crops and other
sensitive vegetation.